sensor_id;sensor_type;location;lat;lon;timestamp;temperature;humidity
83405;SHT30;73331;48.168;20.776;2023-12-20T00:01:26;0.99;89.46
83405;SHT30;73331;48.168;20.776;2023-12-20T00:02:56;0.88;90.09
83405;SHT30;73331;48.168;20.776;2023-12-20T00:04:27;0.74;90.46
83405;SHT30;73331;48.168;20.776;2023-12-20T00:05:57;0.78;90.52
83405;SHT30;73331;48.168;20.776;2023-12-20T00:07:28;0.74;90.55
83405;SHT30;73331;48.168;20.776;2023-12-20T00:08:58;0.77;90.68
83405;SHT30;73331;48.168;20.776;2023-12-20T00:10:29;0.75;90.70
83405;SHT30;73331;48.168;20.776;2023-12-20T00:11:59;0.75;90.85
83405;SHT30;73331;48.168;20.776;2023-12-20T00:13:30;0.74;90.88
83405;SHT30;73331;48.168;20.776;2023-12-20T00:15:00;0.65;91.04
83405;SHT30;73331;48.168;20.776;2023-12-20T00:16:31;0.48;91.38
83405;SHT30;73331;48.168;20.776;2023-12-20T00:18:02;0.48;91.46
83405;SHT30;73331;48.168;20.776;2023-12-20T00:19:33;0.57;91.63
83405;SHT30;73331;48.168;20.776;2023-12-20T00:21:03;0.67;91.67
83405;SHT30;73331;48.168;20.776;2023-12-20T00:22:34;0.77;91.62
83405;SHT30;73331;48.168;20.776;2023-12-20T00:24:04;0.75;91.20
83405;SHT30;73331;48.168;20.776;2023-12-20T00:25:35;0.80;90.95
83405;SHT30;73331;48.168;20.776;2023-12-20T00:27:06;0.72;91.06
83405;SHT30;73331;48.168;20.776;2023-12-20T00:28:36;0.74;91.31
83405;SHT30;73331;48.168;20.776;2023-12-20T00:30:07;0.74;91.23
83405;SHT30;73331;48.168;20.776;2023-12-20T00:31:38;0.77;91.32
83405;SHT30;73331;48.168;20.776;2023-12-20T00:33:08;0.84;90.96
83405;SHT30;73331;48.168;20.776;2023-12-20T00:34:39;0.93;90.71
83405;SHT30;73331;48.168;20.776;2023-12-20T00:36:09;0.85;90.27
83405;SHT30;73331;48.168;20.776;2023-12-20T00:37:40;0.82;90.42
83405;SHT30;73331;48.168;20.776;2023-12-20T00:39:10;0.84;90.12
83405;SHT30;73331;48.168;20.776;2023-12-20T00:40:41;0.81;90.17
83405;SHT30;73331;48.168;20.776;2023-12-20T00:42:11;0.81;90.24
83405;SHT30;73331;48.168;20.776;2023-12-20T00:43:41;0.74;90.39
83405;SHT30;73331;48.168;20.776;2023-12-20T00:45:12;0.74;90.45
83405;SHT30;73331;48.168;20.776;2023-12-20T00:46:43;0.74;90.58
83405;SHT30;73331;48.168;20.776;2023-12-20T00:48:13;0.70;90.71
83405;SHT30;73331;48.168;20.776;2023-12-20T00:49:44;0.61;90.90
83405;SHT30;73331;48.168;20.776;2023-12-20T00:51:14;0.62;91.00
83405;SHT30;73331;48.168;20.776;2023-12-20T00:52:45;0.68;91.03
83405;SHT30;73331;48.168;20.776;2023-12-20T00:54:16;0.70;90.62
83405;SHT30;73331;48.168;20.776;2023-12-20T00:55:47;0.65;90.80
83405;SHT30;73331;48.168;20.776;2023-12-20T00:57:17;0.65;90.78
83405;SHT30;73331;48.168;20.776;2023-12-20T00:58:48;0.68;90.71
83405;SHT30;73331;48.168;20.776;2023-12-20T01:00:18;0.70;90.90
83405;SHT30;73331;48.168;20.776;2023-12-20T01:01:49;0.65;90.76
83405;SHT30;73331;48.168;20.776;2023-12-20T01:03:19;0.68;90.86
83405;SHT30;73331;48.168;20.776;2023-12-20T01:04:50;0.70;90.76
83405;SHT30;73331;48.168;20.776;2023-12-20T01:06:21;0.74;90.53
83405;SHT30;73331;48.168;20.776;2023-12-20T01:07:51;0.58;90.54
83405;SHT30;73331;48.168;20.776;2023-12-20T01:09:22;0.56;90.87
83405;SHT30;73331;48.168;20.776;2023-12-20T01:10:56;0.56;90.91
83405;SHT30;73331;48.168;20.776;2023-12-20T01:12:27;0.58;90.96
83405;SHT30;73331;48.168;20.776;2023-12-20T01:13:57;0.67;90.93
83405;SHT30;73331;48.168;20.776;2023-12-20T01:15:28;0.65;90.69
83405;SHT30;73331;48.168;20.776;2023-12-20T01:16:59;0.71;90.89
83405;SHT30;73331;48.168;20.776;2023-12-20T01:18:29;0.72;90.88
83405;SHT30;73331;48.168;20.776;2023-12-20T01:20:00;0.68;90.92
83405;SHT30;73331;48.168;20.776;2023-12-20T01:21:30;0.48;91.42
83405;SHT30;73331;48.168;20.776;2023-12-20T01:23:01;0.47;91.68
83405;SHT30;73331;48.168;20.776;2023-12-20T01:24:32;0.46;91.88
83405;SHT30;73331;48.168;20.776;2023-12-20T01:26:03;0.48;91.89
83405;SHT30;73331;48.168;20.776;2023-12-20T01:27:35;0.57;91.99
83405;SHT30;73331;48.168;20.776;2023-12-20T01:29:05;0.62;91.67
83405;SHT30;73331;48.168;20.776;2023-12-20T01:30:36;0.65;91.42
83405;SHT30;73331;48.168;20.776;2023-12-20T01:32:06;0.68;91.22
83405;SHT30;73331;48.168;20.776;2023-12-20T01:33:37;0.72;91.22
83405;SHT30;73331;48.168;20.776;2023-12-20T01:35:26;0.71;91.36
83405;SHT30;73331;48.168;20.776;2023-12-20T01:36:56;0.70;91.26
83405;SHT30;73331;48.168;20.776;2023-12-20T01:38:27;0.74;90.92
83405;SHT30;73331;48.168;20.776;2023-12-20T01:39:58;0.74;89.99
83405;SHT30;73331;48.168;20.776;2023-12-20T01:41:29;0.70;89.81
83405;SHT30;73331;48.168;20.776;2023-12-20T01:43:06;0.58;89.91
83405;SHT30;73331;48.168;20.776;2023-12-20T01:44:37;0.56;90.51
83405;SHT30;73331;48.168;20.776;2023-12-20T01:46:07;0.50;89.91
83405;SHT30;73331;48.168;20.776;2023-12-20T01:47:38;0.43;89.83
83405;SHT30;73331;48.168;20.776;2023-12-20T01:49:08;0.50;89.66
83405;SHT30;73331;48.168;20.776;2023-12-20T01:50:39;0.54;89.52
83405;SHT30;73331;48.168;20.776;2023-12-20T01:52:10;0.56;89.49
83405;SHT30;73331;48.168;20.776;2023-12-20T01:53:41;0.57;89.62
83405;SHT30;73331;48.168;20.776;2023-12-20T01:55:13;0.56;89.85
83405;SHT30;73331;48.168;20.776;2023-12-20T01:56:45;0.57;90.08
83405;SHT30;73331;48.168;20.776;2023-12-20T01:58:17;0.58;89.91
83405;SHT30;73331;48.168;20.776;2023-12-20T01:59:47;0.54;89.64
83405;SHT30;73331;48.168;20.776;2023-12-20T02:01:18;0.56;89.71
83405;SHT30;73331;48.168;20.776;2023-12-20T02:02:50;0.61;89.87
83405;SHT30;73331;48.168;20.776;2023-12-20T02:04:23;0.60;89.86
83405;SHT30;73331;48.168;20.776;2023-12-20T02:05:54;0.61;89.72
83405;SHT30;73331;48.168;20.776;2023-12-20T02:07:25;0.58;89.55
83405;SHT30;73331;48.168;20.776;2023-12-20T02:08:57;0.51;89.52
83405;SHT30;73331;48.168;20.776;2023-12-20T02:10:29;0.50;89.74
83405;SHT30;73331;48.168;20.776;2023-12-20T02:12:00;0.56;89.44
83405;SHT30;73331;48.168;20.776;2023-12-20T02:13:31;0.54;89.75
83405;SHT30;73331;48.168;20.776;2023-12-20T02:15:02;0.61;89.80
83405;SHT30;73331;48.168;20.776;2023-12-20T02:16:32;0.62;89.45
83405;SHT30;73331;48.168;20.776;2023-12-20T02:18:04;0.70;89.29
83405;SHT30;73331;48.168;20.776;2023-12-20T02:19:35;0.71;89.52
83405;SHT30;73331;48.168;20.776;2023-12-20T02:21:05;0.84;89.74
83405;SHT30;73331;48.168;20.776;2023-12-20T02:22:36;0.93;89.86
83405;SHT30;73331;48.168;20.776;2023-12-20T02:24:06;1.19;89.11
83405;SHT30;73331;48.168;20.776;2023-12-20T02:25:37;1.05;88.86
83405;SHT30;73331;48.168;20.776;2023-12-20T02:27:08;0.80;89.73
83405;SHT30;73331;48.168;20.776;2023-12-20T02:28:38;0.92;89.88
83405;SHT30;73331;48.168;20.776;2023-12-20T02:30:10;0.75;89.66
83405;SHT30;73331;48.168;20.776;2023-12-20T02:31:40;0.57;89.99
83405;SHT30;73331;48.168;20.776;2023-12-20T02:33:12;0.56;90.34
83405;SHT30;73331;48.168;20.776;2023-12-20T02:34:42;0.64;90.49
83405;SHT30;73331;48.168;20.776;2023-12-20T02:36:13;0.68;90.18
83405;SHT30;73331;48.168;20.776;2023-12-20T02:37:43;0.82;90.11
83405;SHT30;73331;48.168;20.776;2023-12-20T02:39:14;0.91;89.83
83405;SHT30;73331;48.168;20.776;2023-12-20T02:40:44;0.89;89.63
83405;SHT30;73331;48.168;20.776;2023-12-20T02:42:15;0.70;90.19
83405;SHT30;73331;48.168;20.776;2023-12-20T02:43:45;0.56;91.16
83405;SHT30;73331;48.168;20.776;2023-12-20T02:45:16;0.58;91.36
83405;SHT30;73331;48.168;20.776;2023-12-20T02:46:46;0.80;91.09
83405;SHT30;73331;48.168;20.776;2023-12-20T02:48:17;0.71;90.47
83405;SHT30;73331;48.168;20.776;2023-12-20T02:49:48;0.74;90.20
83405;SHT30;73331;48.168;20.776;2023-12-20T02:51:19;0.70;90.15
83405;SHT30;73331;48.168;20.776;2023-12-20T02:52:50;0.74;90.24
83405;SHT30;73331;48.168;20.776;2023-12-20T02:54:20;1.05;89.47
83405;SHT30;73331;48.168;20.776;2023-12-20T02:55:51;0.89;89.19
83405;SHT30;73331;48.168;20.776;2023-12-20T02:57:21;1.39;88.82
83405;SHT30;73331;48.168;20.776;2023-12-20T02:58:52;1.88;87.20
83405;SHT30;73331;48.168;20.776;2023-12-20T03:00:22;2.13;85.38
83405;SHT30;73331;48.168;20.776;2023-12-20T03:01:53;2.13;85.39
83405;SHT30;73331;48.168;20.776;2023-12-20T03:03:23;2.00;85.51
83405;SHT30;73331;48.168;20.776;2023-12-20T03:04:54;1.66;85.26
83405;SHT30;73331;48.168;20.776;2023-12-20T03:06:25;1.36;87.01
83405;SHT30;73331;48.168;20.776;2023-12-20T03:07:55;1.06;88.30
83405;SHT30;73331;48.168;20.776;2023-12-20T03:09:26;0.72;89.54
83405;SHT30;73331;48.168;20.776;2023-12-20T03:10:56;0.64;90.03
83405;SHT30;73331;48.168;20.776;2023-12-20T03:12:28;0.54;90.51
83405;SHT30;73331;48.168;20.776;2023-12-20T03:13:59;0.53;91.17
83405;SHT30;73331;48.168;20.776;2023-12-20T03:15:29;0.43;91.50
83405;SHT30;73331;48.168;20.776;2023-12-20T03:17:00;0.48;91.71
83405;SHT30;73331;48.168;20.776;2023-12-20T03:18:31;0.34;92.01
83405;SHT30;73331;48.168;20.776;2023-12-20T03:20:01;0.30;92.23
83405;SHT30;73331;48.168;20.776;2023-12-20T03:21:32;0.37;91.89
83405;SHT30;73331;48.168;20.776;2023-12-20T03:23:03;0.41;91.31
83405;SHT30;73331;48.168;20.776;2023-12-20T03:24:33;0.71;90.99
83405;SHT30;73331;48.168;20.776;2023-12-20T03:26:07;1.03;88.50
83405;SHT30;73331;48.168;20.776;2023-12-20T03:27:38;0.93;87.11
83405;SHT30;73331;48.168;20.776;2023-12-20T03:29:11;0.44;89.06
83405;SHT30;73331;48.168;20.776;2023-12-20T03:30:42;0.37;90.06
83405;SHT30;73331;48.168;20.776;2023-12-20T03:32:12;0.31;90.39
83405;SHT30;73331;48.168;20.776;2023-12-20T03:33:43;0.34;90.34
83405;SHT30;73331;48.168;20.776;2023-12-20T03:35:13;0.41;90.45
83405;SHT30;73331;48.168;20.776;2023-12-20T03:36:44;0.43;90.68
83405;SHT30;73331;48.168;20.776;2023-12-20T03:38:14;0.44;90.71
83405;SHT30;73331;48.168;20.776;2023-12-20T03:39:45;0.64;90.03
83405;SHT30;73331;48.168;20.776;2023-12-20T03:41:15;0.48;89.59
83405;SHT30;73331;48.168;20.776;2023-12-20T03:42:46;0.40;89.88
83405;SHT30;73331;48.168;20.776;2023-12-20T03:44:16;0.38;90.17
83405;SHT30;73331;48.168;20.776;2023-12-20T03:45:47;0.36;90.41
83405;SHT30;73331;48.168;20.776;2023-12-20T03:47:17;0.41;90.57
83405;SHT30;73331;48.168;20.776;2023-12-20T03:48:48;0.47;90.61
83405;SHT30;73331;48.168;20.776;2023-12-20T03:50:18;0.47;90.59
83405;SHT30;73331;48.168;20.776;2023-12-20T03:51:49;0.50;90.57
83405;SHT30;73331;48.168;20.776;2023-12-20T03:53:19;0.54;90.64
83405;SHT30;73331;48.168;20.776;2023-12-20T03:54:50;0.50;90.61
83405;SHT30;73331;48.168;20.776;2023-12-20T03:56:20;0.50;90.98
83405;SHT30;73331;48.168;20.776;2023-12-20T03:57:51;0.51;90.96
83405;SHT30;73331;48.168;20.776;2023-12-20T03:59:21;0.61;90.60
83405;SHT30;73331;48.168;20.776;2023-12-20T04:00:52;0.57;90.43
83405;SHT30;73331;48.168;20.776;2023-12-20T04:02:22;0.56;90.41
83405;SHT30;73331;48.168;20.776;2023-12-20T04:03:53;0.46;90.76
83405;SHT30;73331;48.168;20.776;2023-12-20T04:05:23;0.53;90.76
83405;SHT30;73331;48.168;20.776;2023-12-20T04:06:54;0.58;90.87
83405;SHT30;73331;48.168;20.776;2023-12-20T04:08:24;0.51;90.36
83405;SHT30;73331;48.168;20.776;2023-12-20T04:09:55;0.51;90.53
83405;SHT30;73331;48.168;20.776;2023-12-20T04:11:25;0.46;90.68
83405;SHT30;73331;48.168;20.776;2023-12-20T04:12:56;0.43;90.82
83405;SHT30;73331;48.168;20.776;2023-12-20T04:14:26;0.48;91.04
83405;SHT30;73331;48.168;20.776;2023-12-20T04:15:57;0.47;90.93
83405;SHT30;73331;48.168;20.776;2023-12-20T04:17:27;0.40;91.05
83405;SHT30;73331;48.168;20.776;2023-12-20T04:18:58;0.41;91.05
83405;SHT30;73331;48.168;20.776;2023-12-20T04:20:29;0.46;91.16
83405;SHT30;73331;48.168;20.776;2023-12-20T04:21:59;0.47;91.25
83405;SHT30;73331;48.168;20.776;2023-12-20T04:23:30;0.48;91.09
83405;SHT30;73331;48.168;20.776;2023-12-20T04:25:01;0.51;91.15
83405;SHT30;73331;48.168;20.776;2023-12-20T04:26:31;0.62;91.14
83405;SHT30;73331;48.168;20.776;2023-12-20T04:28:02;0.57;90.88
83405;SHT30;73331;48.168;20.776;2023-12-20T04:29:33;0.61;90.87
83405;SHT30;73331;48.168;20.776;2023-12-20T04:31:03;0.74;90.75
83405;SHT30;73331;48.168;20.776;2023-12-20T04:32:34;0.62;90.55
83405;SHT30;73331;48.168;20.776;2023-12-20T04:34:04;0.60;90.64
83405;SHT30;73331;48.168;20.776;2023-12-20T04:35:35;0.60;90.51
83405;SHT30;73331;48.168;20.776;2023-12-20T04:37:05;0.53;90.63
83405;SHT30;73331;48.168;20.776;2023-12-20T04:38:36;0.58;90.68
83405;SHT30;73331;48.168;20.776;2023-12-20T04:40:07;0.54;90.81
83405;SHT30;73331;48.168;20.776;2023-12-20T04:41:38;0.50;90.60
83405;SHT30;73331;48.168;20.776;2023-12-20T04:43:09;0.54;90.42
83405;SHT30;73331;48.168;20.776;2023-12-20T04:44:40;0.47;90.47
83405;SHT30;73331;48.168;20.776;2023-12-20T04:46:10;0.47;90.69
83405;SHT30;73331;48.168;20.776;2023-12-20T04:47:41;0.46;90.93
83405;SHT30;73331;48.168;20.776;2023-12-20T04:49:12;0.43;90.82
83405;SHT30;73331;48.168;20.776;2023-12-20T04:50:43;0.47;91.01
83405;SHT30;73331;48.168;20.776;2023-12-20T04:52:14;0.46;90.89
83405;SHT30;73331;48.168;20.776;2023-12-20T04:53:44;0.41;91.05
83405;SHT30;73331;48.168;20.776;2023-12-20T04:55:15;0.46;90.48
83405;SHT30;73331;48.168;20.776;2023-12-20T04:56:46;0.41;90.41
83405;SHT30;73331;48.168;20.776;2023-12-20T04:58:16;0.38;90.43
83405;SHT30;73331;48.168;20.776;2023-12-20T04:59:47;0.37;90.30
83405;SHT30;73331;48.168;20.776;2023-12-20T05:01:18;0.43;90.46
83405;SHT30;73331;48.168;20.776;2023-12-20T05:02:48;0.48;90.36
83405;SHT30;73331;48.168;20.776;2023-12-20T05:04:19;0.46;90.08
83405;SHT30;73331;48.168;20.776;2023-12-20T05:05:49;0.41;90.19
83405;SHT30;73331;48.168;20.776;2023-12-20T05:07:20;0.44;90.36
83405;SHT30;73331;48.168;20.776;2023-12-20T05:08:51;0.51;90.53
83405;SHT30;73331;48.168;20.776;2023-12-20T05:10:21;0.38;90.21
83405;SHT30;73331;48.168;20.776;2023-12-20T05:11:52;0.50;90.37
83405;SHT30;73331;48.168;20.776;2023-12-20T05:13:23;0.53;90.16
83405;SHT30;73331;48.168;20.776;2023-12-20T05:14:54;0.72;90.00
83405;SHT30;73331;48.168;20.776;2023-12-20T05:16:24;0.93;88.58
83405;SHT30;73331;48.168;20.776;2023-12-20T05:17:55;0.98;88.27
83405;SHT30;73331;48.168;20.776;2023-12-20T05:19:25;0.81;88.00
83405;SHT30;73331;48.168;20.776;2023-12-20T05:20:56;0.78;88.36
83405;SHT30;73331;48.168;20.776;2023-12-20T05:22:27;0.56;89.30
83405;SHT30;73331;48.168;20.776;2023-12-20T05:23:58;0.53;89.36
83405;SHT30;73331;48.168;20.776;2023-12-20T05:25:28;0.40;89.84
83405;SHT30;73331;48.168;20.776;2023-12-20T05:26:59;0.44;90.03
83405;SHT30;73331;48.168;20.776;2023-12-20T05:28:30;0.27;90.40
83405;SHT30;73331;48.168;20.776;2023-12-20T05:30:00;0.31;90.55
83405;SHT30;73331;48.168;20.776;2023-12-20T05:31:31;0.30;90.72
83405;SHT30;73331;48.168;20.776;2023-12-20T05:33:02;0.40;90.74
83405;SHT30;73331;48.168;20.776;2023-12-20T05:34:32;0.41;90.33
83405;SHT30;73331;48.168;20.776;2023-12-20T05:36:03;0.41;90.18
83405;SHT30;73331;48.168;20.776;2023-12-20T05:37:34;0.47;89.84
83405;SHT30;73331;48.168;20.776;2023-12-20T05:39:05;0.40;89.95
83405;SHT30;73331;48.168;20.776;2023-12-20T05:40:35;0.60;90.11
83405;SHT30;73331;48.168;20.776;2023-12-20T05:42:06;0.60;89.60
83405;SHT30;73331;48.168;20.776;2023-12-20T05:43:36;0.56;89.60
83405;SHT30;73331;48.168;20.776;2023-12-20T05:45:08;0.64;89.61
83405;SHT30;73331;48.168;20.776;2023-12-20T05:46:39;0.56;89.11
83405;SHT30;73331;48.168;20.776;2023-12-20T05:48:10;0.40;89.55
83405;SHT30;73331;48.168;20.776;2023-12-20T05:49:42;0.28;90.43
83405;SHT30;73331;48.168;20.776;2023-12-20T05:51:13;0.34;90.95
83405;SHT30;73331;48.168;20.776;2023-12-20T05:52:43;0.89;89.69
83405;SHT30;73331;48.168;20.776;2023-12-20T05:54:14;1.15;88.30
83405;SHT30;73331;48.168;20.776;2023-12-20T05:55:45;0.82;88.38
83405;SHT30;73331;48.168;20.776;2023-12-20T05:57:15;0.64;89.48
83405;SHT30;73331;48.168;20.776;2023-12-20T05:58:46;0.37;90.62
83405;SHT30;73331;48.168;20.776;2023-12-20T06:00:16;0.27;91.04
83405;SHT30;73331;48.168;20.776;2023-12-20T06:01:47;0.28;91.07
83405;SHT30;73331;48.168;20.776;2023-12-20T06:03:18;0.26;91.37
83405;SHT30;73331;48.168;20.776;2023-12-20T06:04:48;0.23;91.58
83405;SHT30;73331;48.168;20.776;2023-12-20T06:06:19;0.17;91.89
83405;SHT30;73331;48.168;20.776;2023-12-20T06:07:49;0.20;92.06
83405;SHT30;73331;48.168;20.776;2023-12-20T06:09:21;0.24;91.97
83405;SHT30;73331;48.168;20.776;2023-12-20T06:10:51;0.23;91.85
83405;SHT30;73331;48.168;20.776;2023-12-20T06:12:22;0.20;91.78
83405;SHT30;73331;48.168;20.776;2023-12-20T06:13:52;0.24;91.39
83405;SHT30;73331;48.168;20.776;2023-12-20T06:15:23;0.27;91.26
83405;SHT30;73331;48.168;20.776;2023-12-20T06:16:54;0.27;91.60
83405;SHT30;73331;48.168;20.776;2023-12-20T06:18:25;0.23;91.53
83405;SHT30;73331;48.168;20.776;2023-12-20T06:19:55;0.27;91.40
83405;SHT30;73331;48.168;20.776;2023-12-20T06:21:26;0.18;91.30
83405;SHT30;73331;48.168;20.776;2023-12-20T06:22:56;0.13;91.51
83405;SHT30;73331;48.168;20.776;2023-12-20T06:24:27;0.17;91.49
83405;SHT30;73331;48.168;20.776;2023-12-20T06:25:58;0.23;91.07
83405;SHT30;73331;48.168;20.776;2023-12-20T06:27:29;0.13;91.21
83405;SHT30;73331;48.168;20.776;2023-12-20T06:28:59;0.10;91.62
83405;SHT30;73331;48.168;20.776;2023-12-20T06:30:30;0.10;91.71
83405;SHT30;73331;48.168;20.776;2023-12-20T06:32:03;0.16;91.47
83405;SHT30;73331;48.168;20.776;2023-12-20T06:33:33;0.17;91.30
83405;SHT30;73331;48.168;20.776;2023-12-20T06:35:05;0.11;91.52
83405;SHT30;73331;48.168;20.776;2023-12-20T06:36:35;0.07;91.80
83405;SHT30;73331;48.168;20.776;2023-12-20T06:38:06;-0.04;91.98
83405;SHT30;73331;48.168;20.776;2023-12-20T06:39:36;-0.05;91.92
83405;SHT30;73331;48.168;20.776;2023-12-20T06:41:07;0.30;91.60
83405;SHT30;73331;48.168;20.776;2023-12-20T06:42:38;0.40;90.73
83405;SHT30;73331;48.168;20.776;2023-12-20T06:44:08;0.51;90.19
83405;SHT30;73331;48.168;20.776;2023-12-20T06:45:39;0.70;89.72
83405;SHT30;73331;48.168;20.776;2023-12-20T06:47:10;1.15;88.46
83405;SHT30;73331;48.168;20.776;2023-12-20T06:48:40;1.39;86.97
83405;SHT30;73331;48.168;20.776;2023-12-20T06:50:11;1.56;85.72
83405;SHT30;73331;48.168;20.776;2023-12-20T06:51:42;1.26;85.25
83405;SHT30;73331;48.168;20.776;2023-12-20T06:53:12;1.02;86.27
83405;SHT30;73331;48.168;20.776;2023-12-20T06:54:43;1.02;87.39
83405;SHT30;73331;48.168;20.776;2023-12-20T06:56:13;1.09;86.92
83405;SHT30;73331;48.168;20.776;2023-12-20T06:57:44;1.12;86.66
83405;SHT30;73331;48.168;20.776;2023-12-20T06:59:14;1.23;86.69
83405;SHT30;73331;48.168;20.776;2023-12-20T07:00:46;1.18;85.97
83405;SHT30;73331;48.168;20.776;2023-12-20T07:02:16;1.09;86.39
83405;SHT30;73331;48.168;20.776;2023-12-20T07:03:47;0.88;87.05
83405;SHT30;73331;48.168;20.776;2023-12-20T07:05:17;0.70;87.25
83405;SHT30;73331;48.168;20.776;2023-12-20T07:06:50;0.41;88.38
83405;SHT30;73331;48.168;20.776;2023-12-20T07:08:22;0.30;89.22
83405;SHT30;73331;48.168;20.776;2023-12-20T07:09:53;0.41;89.16
83405;SHT30;73331;48.168;20.776;2023-12-20T07:11:23;0.28;89.82
83405;SHT30;73331;48.168;20.776;2023-12-20T07:12:56;0.34;89.86
83405;SHT30;73331;48.168;20.776;2023-12-20T07:14:27;0.33;90.09
83405;SHT30;73331;48.168;20.776;2023-12-20T07:15:58;0.30;90.37
83405;SHT30;73331;48.168;20.776;2023-12-20T07:17:28;0.24;90.18
83405;SHT30;73331;48.168;20.776;2023-12-20T07:18:59;0.20;90.46
83405;SHT30;73331;48.168;20.776;2023-12-20T07:20:29;0.16;90.97
83405;SHT30;73331;48.168;20.776;2023-12-20T07:22:00;0.11;90.87
83405;SHT30;73331;48.168;20.776;2023-12-20T07:23:30;0.00;91.29
83405;SHT30;73331;48.168;20.776;2023-12-20T07:25:01;0.06;91.15
83405;SHT30;73331;48.168;20.776;2023-12-20T07:26:31;0.03;91.48
83405;SHT30;73331;48.168;20.776;2023-12-20T07:28:02;0.10;91.45
83405;SHT30;73331;48.168;20.776;2023-12-20T07:29:33;0.13;91.22
83405;SHT30;73331;48.168;20.776;2023-12-20T07:31:03;0.20;90.98
83405;SHT30;73331;48.168;20.776;2023-12-20T07:32:34;0.47;90.55
83405;SHT30;73331;48.168;20.776;2023-12-20T07:34:04;0.77;88.97
83405;SHT30;73331;48.168;20.776;2023-12-20T07:35:36;0.81;87.48
83405;SHT30;73331;48.168;20.776;2023-12-20T07:37:06;0.64;87.75
83405;SHT30;73331;48.168;20.776;2023-12-20T07:38:37;0.64;87.92
83405;SHT30;73331;48.168;20.776;2023-12-20T07:40:09;0.62;87.82
83405;SHT30;73331;48.168;20.776;2023-12-20T07:41:39;0.48;88.65
83405;SHT30;73331;48.168;20.776;2023-12-20T07:43:10;0.38;89.33
83405;SHT30;73331;48.168;20.776;2023-12-20T07:44:40;0.46;89.79
83405;SHT30;73331;48.168;20.776;2023-12-20T07:46:11;0.54;89.67
83405;SHT30;73331;48.168;20.776;2023-12-20T07:47:42;0.50;89.48
83405;SHT30;73331;48.168;20.776;2023-12-20T07:49:12;0.51;89.56
83405;SHT30;73331;48.168;20.776;2023-12-20T07:50:43;0.53;89.49
83405;SHT30;73331;48.168;20.776;2023-12-20T07:52:14;0.65;89.28
83405;SHT30;73331;48.168;20.776;2023-12-20T07:53:44;0.40;89.45
83405;SHT30;73331;48.168;20.776;2023-12-20T07:55:15;0.46;89.51
83405;SHT30;73331;48.168;20.776;2023-12-20T07:56:46;0.40;89.99
83405;SHT30;73331;48.168;20.776;2023-12-20T07:58:17;0.61;89.54
83405;SHT30;73331;48.168;20.776;2023-12-20T07:59:47;0.84;88.54
83405;SHT30;73331;48.168;20.776;2023-12-20T08:01:18;0.89;87.75
83405;SHT30;73331;48.168;20.776;2023-12-20T08:02:49;0.84;87.84
83405;SHT30;73331;48.168;20.776;2023-12-20T08:04:19;0.77;88.12
83405;SHT30;73331;48.168;20.776;2023-12-20T08:05:50;0.62;88.00
83405;SHT30;73331;48.168;20.776;2023-12-20T08:07:21;0.74;88.21
83405;SHT30;73331;48.168;20.776;2023-12-20T08:08:51;1.06;88.18
83405;SHT30;73331;48.168;20.776;2023-12-20T08:10:22;1.15;87.71
83405;SHT30;73331;48.168;20.776;2023-12-20T08:11:52;1.12;86.86
83405;SHT30;73331;48.168;20.776;2023-12-20T08:13:23;1.08;86.86
83405;SHT30;73331;48.168;20.776;2023-12-20T08:14:56;1.32;86.53
83405;SHT30;73331;48.168;20.776;2023-12-20T08:16:27;1.38;85.82
83405;SHT30;73331;48.168;20.776;2023-12-20T08:17:58;1.81;84.73
83405;SHT30;73331;48.168;20.776;2023-12-20T08:19:28;1.91;84.40
83405;SHT30;73331;48.168;20.776;2023-12-20T08:20:59;2.14;83.57
83405;SHT30;73331;48.168;20.776;2023-12-20T08:22:30;2.10;83.50
83405;SHT30;73331;48.168;20.776;2023-12-20T08:24:01;1.97;83.64
83405;SHT30;73331;48.168;20.776;2023-12-20T08:25:31;1.66;84.40
83405;SHT30;73331;48.168;20.776;2023-12-20T08:27:02;1.96;84.13
83405;SHT30;73331;48.168;20.776;2023-12-20T08:28:33;1.94;83.64
83405;SHT30;73331;48.168;20.776;2023-12-20T08:30:04;1.66;83.65
83405;SHT30;73331;48.168;20.776;2023-12-20T08:31:35;1.56;84.52
83405;SHT30;73331;48.168;20.776;2023-12-20T08:33:06;1.57;85.45
83405;SHT30;73331;48.168;20.776;2023-12-20T08:34:41;1.84;83.80
83405;SHT30;73331;48.168;20.776;2023-12-20T08:36:12;2.10;83.66
83405;SHT30;73331;48.168;20.776;2023-12-20T08:37:42;2.03;83.44
83405;SHT30;73331;48.168;20.776;2023-12-20T08:39:13;2.11;83.28
83405;SHT30;73331;48.168;20.776;2023-12-20T08:40:44;2.25;82.83
83405;SHT30;73331;48.168;20.776;2023-12-20T08:42:14;2.21;82.49
83405;SHT30;73331;48.168;20.776;2023-12-20T08:43:45;1.68;83.28
83405;SHT30;73331;48.168;20.776;2023-12-20T08:45:16;1.86;84.20
83405;SHT30;73331;48.168;20.776;2023-12-20T08:46:46;1.94;84.02
83405;SHT30;73331;48.168;20.776;2023-12-20T08:48:17;1.96;83.70
83405;SHT30;73331;48.168;20.776;2023-12-20T08:49:47;1.96;83.82
83405;SHT30;73331;48.168;20.776;2023-12-20T08:51:18;1.63;84.73
83405;SHT30;73331;48.168;20.776;2023-12-20T08:52:49;1.38;86.19
83405;SHT30;73331;48.168;20.776;2023-12-20T08:54:19;1.47;86.58
83405;SHT30;73331;48.168;20.776;2023-12-20T08:55:50;2.01;84.71
83405;SHT30;73331;48.168;20.776;2023-12-20T08:57:21;2.03;84.45
83405;SHT30;73331;48.168;20.776;2023-12-20T08:58:51;1.80;84.51
83405;SHT30;73331;48.168;20.776;2023-12-20T09:00:22;1.98;84.79
83405;SHT30;73331;48.168;20.776;2023-12-20T09:01:54;1.70;84.73
83405;SHT30;73331;48.168;20.776;2023-12-20T09:03:26;1.67;85.69
83405;SHT30;73331;48.168;20.776;2023-12-20T09:04:57;1.93;85.41
83405;SHT30;73331;48.168;20.776;2023-12-20T09:06:27;1.80;84.94
83405;SHT30;73331;48.168;20.776;2023-12-20T09:07:58;1.83;84.87
83405;SHT30;73331;48.168;20.776;2023-12-20T09:09:28;1.64;86.14
83405;SHT30;73331;48.168;20.776;2023-12-20T09:10:59;1.23;86.91
83405;SHT30;73331;48.168;20.776;2023-12-20T09:12:30;1.23;87.31
83405;SHT30;73331;48.168;20.776;2023-12-20T09:14:01;1.68;86.47
83405;SHT30;73331;48.168;20.776;2023-12-20T09:15:32;2.00;84.48
83405;SHT30;73331;48.168;20.776;2023-12-20T09:17:04;1.64;84.95
83405;SHT30;73331;48.168;20.776;2023-12-20T09:18:34;1.57;85.33
83405;SHT30;73331;48.168;20.776;2023-12-20T09:20:05;1.67;85.72
83405;SHT30;73331;48.168;20.776;2023-12-20T09:21:38;1.47;85.87
83405;SHT30;73331;48.168;20.776;2023-12-20T09:23:08;1.71;86.56
83405;SHT30;73331;48.168;20.776;2023-12-20T09:24:39;2.17;84.70
83405;SHT30;73331;48.168;20.776;2023-12-20T09:26:10;2.24;83.29
83405;SHT30;73331;48.168;20.776;2023-12-20T09:27:40;2.46;82.74
83405;SHT30;73331;48.168;20.776;2023-12-20T09:29:11;2.56;82.36
83405;SHT30;73331;48.168;20.776;2023-12-20T09:30:45;2.58;81.80
83405;SHT30;73331;48.168;20.776;2023-12-20T09:32:16;2.66;81.70
83405;SHT30;73331;48.168;20.776;2023-12-20T09:33:47;2.34;82.80